sensor_id;sensor_type;location;lat;lon;timestamp;P1;durP1;ratioP1;P2;durP2;ratioP2
62994;SDS011;49086;52.300;4.850;2022-10-31T00:00:10;4.97;;;3.70;;
62994;SDS011;49086;52.300;4.850;2022-10-31T00:02:56;6.78;;;4.10;;
62994;SDS011;49086;52.300;4.850;2022-10-31T00:05:30;5.35;;;4.05;;
62994;SDS011;49086;52.300;4.850;2022-10-31T00:07:55;4.97;;;3.55;;
62994;SDS011;49086;52.300;4.850;2022-10-31T00:10:23;5.75;;;3.95;;
62994;SDS011;49086;52.300;4.850;2022-10-31T00:12:49;6.53;;;3.97;;
62994;SDS011;49086;52.300;4.850;2022-10-31T00:15:16;6.63;;;4.22;;
62994;SDS011;49086;52.300;4.850;2022-10-31T00:17:46;6.10;;;3.92;;
62994;SDS011;49086;52.300;4.850;2022-10-31T00:20:20;5.97;;;4.32;;
62994;SDS011;49086;52.300;4.850;2022-10-31T00:23:40;7.15;;;4.00;;
62994;SDS011;49086;52.300;4.850;2022-10-31T00:26:06;7.47;;;4.30;;
62994;SDS011;49086;52.300;4.850;2022-10-31T00:28:52;6.70;;;4.18;;
62994;SDS011;49086;52.300;4.850;2022-10-31T00:31:18;7.15;;;4.38;;
62994;SDS011;49086;52.300;4.850;2022-10-31T00:33:55;7.03;;;4.50;;
62994;SDS011;49086;52.300;4.850;2022-10-31T00:36:40;8.25;;;4.45;;
62994;SDS011;49086;52.300;4.850;2022-10-31T00:39:17;6.75;;;4.32;;
62994;SDS011;49086;52.300;4.850;2022-10-31T00:41:44;4.75;;;3.67;;
62994;SDS011;49086;52.300;4.850;2022-10-31T00:44:10;10.88;;;4.13;;
62994;SDS011;49086;52.300;4.850;2022-10-31T00:46:41;6.47;;;3.80;;
62994;SDS011;49086;52.300;4.850;2022-10-31T00:49:08;7.43;;;3.78;;
62994;SDS011;49086;52.300;4.850;2022-10-31T00:51:33;9.55;;;4.13;;
62994;SDS011;49086;52.300;4.850;2022-10-31T00:53:58;7.90;;;3.70;;
62994;SDS011;49086;52.300;4.850;2022-10-31T00:56:24;8.00;;;3.90;;
62994;SDS011;49086;52.300;4.850;2022-10-31T00:58:52;9.63;;;4.27;;
62994;SDS011;49086;52.300;4.850;2022-10-31T01:01:17;8.90;;;3.75;;
62994;SDS011;49086;52.300;4.850;2022-10-31T01:03:43;5.55;;;3.72;;
62994;SDS011;49086;52.300;4.850;2022-10-31T01:06:10;8.57;;;4.03;;
62994;SDS011;49086;52.300;4.850;2022-10-31T01:08:37;7.40;;;4.20;;
62994;SDS011;49086;52.300;4.850;2022-10-31T01:11:30;5.35;;;3.63;;
62994;SDS011;49086;52.300;4.850;2022-10-31T01:13:55;7.22;;;3.92;;
62994;SDS011;49086;52.300;4.850;2022-10-31T01:16:30;8.20;;;3.58;;
62994;SDS011;49086;52.300;4.850;2022-10-31T01:18:55;8.10;;;3.88;;
62994;SDS011;49086;52.300;4.850;2022-10-31T01:21:24;12.65;;;3.85;;
62994;SDS011;49086;52.300;4.850;2022-10-31T01:23:53;6.05;;;3.58;;
62994;SDS011;49086;52.300;4.850;2022-10-31T01:26:20;6.47;;;3.83;;
62994;SDS011;49086;52.300;4.850;2022-10-31T01:28:53;6.53;;;4.07;;
62994;SDS011;49086;52.300;4.850;2022-10-31T01:31:21;5.35;;;3.80;;
62994;SDS011;49086;52.300;4.850;2022-10-31T01:33:48;6.28;;;3.70;;
62994;SDS011;49086;52.300;4.850;2022-10-31T01:36:22;7.00;;;4.00;;
62994;SDS011;49086;52.300;4.850;2022-10-31T01:39:03;7.38;;;4.05;;
62994;SDS011;49086;52.300;4.850;2022-10-31T01:41:30;9.50;;;3.88;;
62994;SDS011;49086;52.300;4.850;2022-10-31T01:44:03;5.50;;;3.80;;
62994;SDS011;49086;52.300;4.850;2022-10-31T01:52:24;5.90;;;3.70;;
62994;SDS011;49086;52.300;4.850;2022-10-31T01:55:12;9.57;;;4.15;;
62994;SDS011;49086;52.300;4.850;2022-10-31T01:57:45;9.68;;;4.07;;
62994;SDS011;49086;52.300;4.850;2022-10-31T02:00:27;7.85;;;3.95;;
62994;SDS011;49086;52.300;4.850;2022-10-31T02:02:52;7.18;;;4.47;;
62994;SDS011;49086;52.300;4.850;2022-10-31T02:05:21;12.80;;;5.07;;
62994;SDS011;49086;52.300;4.850;2022-10-31T02:08:04;10.23;;;4.90;;
62994;SDS011;49086;52.300;4.850;2022-10-31T02:10:40;9.23;;;5.15;;
62994;SDS011;49086;52.300;4.850;2022-10-31T02:13:07;6.95;;;5.00;;
62994;SDS011;49086;52.300;4.850;2022-10-31T02:16:02;11.77;;;5.10;;
62994;SDS011;49086;52.300;4.850;2022-10-31T02:18:28;8.38;;;5.22;;
62994;SDS011;49086;52.300;4.850;2022-10-31T02:34:17;9.98;;;5.28;;
62994;SDS011;49086;52.300;4.850;2022-10-31T02:36:54;7.93;;;5.10;;
62994;SDS011;49086;52.300;4.850;2022-10-31T02:42:30;8.15;;;5.43;;
62994;SDS011;49086;52.300;4.850;2022-10-31T02:45:03;11.13;;;5.13;;
62994;SDS011;49086;52.300;4.850;2022-10-31T02:47:34;10.02;;;5.22;;
62994;SDS011;49086;52.300;4.850;2022-10-31T02:50:03;8.20;;;5.28;;
62994;SDS011;49086;52.300;4.850;2022-10-31T02:52:35;9.55;;;5.55;;
62994;SDS011;49086;52.300;4.850;2022-10-31T02:58:20;9.48;;;5.50;;
62994;SDS011;49086;52.300;4.850;2022-10-31T03:06:03;8.68;;;5.28;;
62994;SDS011;49086;52.300;4.850;2022-10-31T03:08:38;9.63;;;5.70;;
62994;SDS011;49086;52.300;4.850;2022-10-31T03:11:07;9.90;;;5.38;;
62994;SDS011;49086;52.300;4.850;2022-10-31T03:13:38;10.25;;;6.00;;
62994;SDS011;49086;52.300;4.850;2022-10-31T03:18:50;8.10;;;5.78;;
62994;SDS011;49086;52.300;4.850;2022-10-31T03:21:25;8.38;;;5.35;;
62994;SDS011;49086;52.300;4.850;2022-10-31T03:23:53;8.18;;;5.55;;
62994;SDS011;49086;52.300;4.850;2022-10-31T03:26:21;9.85;;;5.85;;
62994;SDS011;49086;52.300;4.850;2022-10-31T03:28:52;8.68;;;5.80;;
62994;SDS011;49086;52.300;4.850;2022-10-31T03:31:19;9.50;;;5.65;;
62994;SDS011;49086;52.300;4.850;2022-10-31T03:33:49;9.48;;;5.93;;
62994;SDS011;49086;52.300;4.850;2022-10-31T03:36:22;8.63;;;5.90;;
62994;SDS011;49086;52.300;4.850;2022-10-31T03:38:50;12.85;;;6.72;;
62994;SDS011;49086;52.300;4.850;2022-10-31T03:41:38;10.98;;;5.60;;
62994;SDS011;49086;52.300;4.850;2022-10-31T03:44:08;10.23;;;5.95;;
62994;SDS011;49086;52.300;4.850;2022-10-31T03:46:40;9.30;;;6.05;;
62994;SDS011;49086;52.300;4.850;2022-10-31T03:49:27;9.75;;;6.40;;
62994;SDS011;49086;52.300;4.850;2022-10-31T03:54:32;11.25;;;6.22;;
62994;SDS011;49086;52.300;4.850;2022-10-31T03:57:05;8.65;;;6.15;;
62994;SDS011;49086;52.300;4.850;2022-10-31T03:59:33;10.85;;;6.85;;
62994;SDS011;49086;52.300;4.850;2022-10-31T04:02:23;10.80;;;7.38;;
62994;SDS011;49086;52.300;4.850;2022-10-31T04:04:52;11.07;;;6.70;;
62994;SDS011;49086;52.300;4.850;2022-10-31T04:07:24;11.80;;;6.65;;
62994;SDS011;49086;52.300;4.850;2022-10-31T04:09:52;12.60;;;7.57;;
62994;SDS011;49086;52.300;4.850;2022-10-31T04:12:38;11.25;;;7.75;;
62994;SDS011;49086;52.300;4.850;2022-10-31T04:15:04;14.15;;;8.73;;
62994;SDS011;49086;52.300;4.850;2022-10-31T04:17:36;18.30;;;10.18;;
62994;SDS011;49086;52.300;4.850;2022-10-31T04:20:04;13.43;;;9.38;;
62994;SDS011;49086;52.300;4.850;2022-10-31T04:22:30;16.35;;;9.60;;
62994;SDS011;49086;52.300;4.850;2022-10-31T04:24:56;16.50;;;10.77;;
62994;SDS011;49086;52.300;4.850;2022-10-31T04:27:26;15.85;;;10.07;;
62994;SDS011;49086;52.300;4.850;2022-10-31T04:29:55;16.65;;;10.13;;
62994;SDS011;49086;52.300;4.850;2022-10-31T04:32:21;17.17;;;11.13;;
62994;SDS011;49086;52.300;4.850;2022-10-31T04:34:48;17.58;;;9.73;;
62994;SDS011;49086;52.300;4.850;2022-10-31T04:37:17;16.08;;;10.48;;
62994;SDS011;49086;52.300;4.850;2022-10-31T04:39:43;18.60;;;11.23;;
62994;SDS011;49086;52.300;4.850;2022-10-31T04:42:12;19.45;;;10.95;;
62994;SDS011;49086;52.300;4.850;2022-10-31T04:44:37;16.50;;;10.98;;
62994;SDS011;49086;52.300;4.850;2022-10-31T04:47:03;16.27;;;10.65;;
62994;SDS011;49086;52.300;4.850;2022-10-31T04:49:33;16.90;;;10.65;;
62994;SDS011;49086;52.300;4.850;2022-10-31T04:52:07;16.45;;;10.85;;
62994;SDS011;49086;52.300;4.850;2022-10-31T04:54:38;16.42;;;11.13;;
62994;SDS011;49086;52.300;4.850;2022-10-31T04:57:13;16.25;;;10.48;;
62994;SDS011;49086;52.300;4.850;2022-10-31T04:59:38;15.02;;;10.70;;
62994;SDS011;49086;52.300;4.850;2022-10-31T05:02:04;20.60;;;11.82;;
62994;SDS011;49086;52.300;4.850;2022-10-31T05:04:30;15.73;;;11.50;;
62994;SDS011;49086;52.300;4.850;2022-10-31T05:07:00;16.70;;;11.52;;
62994;SDS011;49086;52.300;4.850;2022-10-31T05:09:26;19.67;;;12.30;;
62994;SDS011;49086;52.300;4.850;2022-10-31T05:11:57;21.87;;;12.30;;
62994;SDS011;49086;52.300;4.850;2022-10-31T05:14:42;15.40;;;10.82;;
62994;SDS011;49086;52.300;4.850;2022-10-31T05:17:17;16.27;;;10.90;;
62994;SDS011;49086;52.300;4.850;2022-10-31T05:19:42;19.33;;;11.03;;
62994;SDS011;49086;52.300;4.850;2022-10-31T05:22:08;16.48;;;11.35;;
62994;SDS011;49086;52.300;4.850;2022-10-31T05:24:35;17.42;;;12.13;;
62994;SDS011;49086;52.300;4.850;2022-10-31T05:27:02;19.05;;;12.18;;
62994;SDS011;49086;52.300;4.850;2022-10-31T05:29:31;21.42;;;11.95;;
62994;SDS011;49086;52.300;4.850;2022-10-31T05:31:59;18.85;;;11.88;;
62994;SDS011;49086;52.300;4.850;2022-10-31T05:34:25;18.17;;;12.25;;
62994;SDS011;49086;52.300;4.850;2022-10-31T05:36:52;18.10;;;12.10;;
62994;SDS011;49086;52.300;4.850;2022-10-31T05:39:22;19.98;;;12.55;;
62994;SDS011;49086;52.300;4.850;2022-10-31T05:41:50;19.20;;;12.02;;
62994;SDS011;49086;52.300;4.850;2022-10-31T05:44:17;20.77;;;13.25;;
62994;SDS011;49086;52.300;4.850;2022-10-31T05:46:55;22.45;;;13.70;;
62994;SDS011;49086;52.300;4.850;2022-10-31T05:49:22;18.50;;;12.63;;
62994;SDS011;49086;52.300;4.850;2022-10-31T05:52:32;24.40;;;14.10;;
62994;SDS011;49086;52.300;4.850;2022-10-31T05:55:04;21.83;;;14.30;;
62994;SDS011;49086;52.300;4.850;2022-10-31T05:57:36;19.70;;;13.48;;
62994;SDS011;49086;52.300;4.850;2022-10-31T06:00:11;22.98;;;14.20;;
62994;SDS011;49086;52.300;4.850;2022-10-31T06:02:38;27.40;;;14.52;;
62994;SDS011;49086;52.300;4.850;2022-10-31T06:05:04;22.65;;;14.70;;
62994;SDS011;49086;52.300;4.850;2022-10-31T06:07:33;21.42;;;13.38;;
62994;SDS011;49086;52.300;4.850;2022-10-31T06:10:04;27.52;;;15.70;;
62994;SDS011;49086;52.300;4.850;2022-10-31T06:12:32;26.63;;;15.13;;
62994;SDS011;49086;52.300;4.850;2022-10-31T06:15:04;23.85;;;15.35;;
62994;SDS011;49086;52.300;4.850;2022-10-31T06:17:34;25.13;;;15.13;;
62994;SDS011;49086;52.300;4.850;2022-10-31T06:20:04;25.75;;;14.77;;
62994;SDS011;49086;52.300;4.850;2022-10-31T06:22:30;24.15;;;14.40;;
62994;SDS011;49086;52.300;4.850;2022-10-31T06:25:04;25.63;;;14.98;;
62994;SDS011;49086;52.300;4.850;2022-10-31T06:27:33;21.27;;;14.45;;
62994;SDS011;49086;52.300;4.850;2022-10-31T06:29:58;28.95;;;16.48;;
62994;SDS011;49086;52.300;4.850;2022-10-31T06:32:29;31.67;;;16.15;;
62994;SDS011;49086;52.300;4.850;2022-10-31T06:35:01;26.95;;;16.42;;
62994;SDS011;49086;52.300;4.850;2022-10-31T06:37:28;28.13;;;16.08;;
62994;SDS011;49086;52.300;4.850;2022-10-31T06:39:53;28.08;;;17.13;;
62994;SDS011;49086;52.300;4.850;2022-10-31T06:42:22;25.85;;;16.33;;
62994;SDS011;49086;52.300;4.850;2022-10-31T06:44:52;26.00;;;16.08;;
62994;SDS011;49086;52.300;4.850;2022-10-31T06:47:39;27.33;;;17.75;;
62994;SDS011;49086;52.300;4.850;2022-10-31T06:50:06;28.30;;;17.30;;
62994;SDS011;49086;52.300;4.850;2022-10-31T06:52:33;30.17;;;16.70;;
62994;SDS011;49086;52.300;4.850;2022-10-31T06:55:08;29.40;;;16.58;;
62994;SDS011;49086;52.300;4.850;2022-10-31T06:57:55;26.10;;;16.67;;
62994;SDS011;49086;52.300;4.850;2022-10-31T07:00:24;26.75;;;16.88;;
62994;SDS011;49086;52.300;4.850;2022-10-31T07:02:57;30.48;;;17.85;;
62994;SDS011;49086;52.300;4.850;2022-10-31T07:05:34;29.10;;;16.48;;
62994;SDS011;49086;52.300;4.850;2022-10-31T07:08:05;29.88;;;17.60;;
62994;SDS011;49086;52.300;4.850;2022-10-31T07:10:33;25.85;;;16.15;;
62994;SDS011;49086;52.300;4.850;2022-10-31T07:13:11;29.30;;;16.90;;
62994;SDS011;49086;52.300;4.850;2022-10-31T07:15:37;26.63;;;16.98;;
62994;SDS011;49086;52.300;4.850;2022-10-31T07:18:03;31.85;;;17.55;;
62994;SDS011;49086;52.300;4.850;2022-10-31T07:20:32;31.67;;;16.92;;
62994;SDS011;49086;52.300;4.850;2022-10-31T07:23:00;30.83;;;17.08;;
62994;SDS011;49086;52.300;4.850;2022-10-31T07:25:27;27.63;;;16.45;;
62994;SDS011;49086;52.300;4.850;2022-10-31T07:27:56;25.88;;;15.70;;
62994;SDS011;49086;52.300;4.850;2022-10-31T07:30:23;28.42;;;16.35;;
62994;SDS011;49086;52.300;4.850;2022-10-31T07:32:53;31.53;;;15.70;;
62994;SDS011;49086;52.300;4.850;2022-10-31T07:35:27;25.95;;;15.32;;
62994;SDS011;49086;52.300;4.850;2022-10-31T07:37:53;32.13;;;16.88;;
62994;SDS011;49086;52.300;4.850;2022-10-31T07:40:20;34.80;;;17.35;;
62994;SDS011;49086;52.300;4.850;2022-10-31T07:42:51;30.92;;;16.85;;
62994;SDS011;49086;52.300;4.850;2022-10-31T07:45:35;25.83;;;15.43;;
62994;SDS011;49086;52.300;4.850;2022-10-31T07:48:03;30.92;;;17.25;;
62994;SDS011;49086;52.300;4.850;2022-10-31T07:50:31;35.65;;;17.88;;
62994;SDS011;49086;52.300;4.850;2022-10-31T07:53:16;28.50;;;16.05;;
62994;SDS011;49086;52.300;4.850;2022-10-31T07:55:43;24.80;;;16.42;;
62994;SDS011;49086;52.300;4.850;2022-10-31T07:58:14;30.77;;;18.33;;
62994;SDS011;49086;52.300;4.850;2022-10-31T08:00:43;29.20;;;17.90;;
62994;SDS011;49086;52.300;4.850;2022-10-31T08:03:11;25.17;;;16.08;;
62994;SDS011;49086;52.300;4.850;2022-10-31T08:06:03;32.05;;;17.70;;
62994;SDS011;49086;52.300;4.850;2022-10-31T08:08:49;27.73;;;17.15;;
62994;SDS011;49086;52.300;4.850;2022-10-31T08:11:42;31.50;;;18.27;;
62994;SDS011;49086;52.300;4.850;2022-10-31T08:14:18;28.50;;;16.63;;
62994;SDS011;49086;52.300;4.850;2022-10-31T08:16:43;36.25;;;17.92;;
62994;SDS011;49086;52.300;4.850;2022-10-31T08:19:08;34.35;;;18.00;;
62994;SDS011;49086;52.300;4.850;2022-10-31T08:21:33;30.33;;;17.50;;
62994;SDS011;49086;52.300;4.850;2022-10-31T08:24:04;29.95;;;17.63;;
62994;SDS011;49086;52.300;4.850;2022-10-31T08:26:29;29.00;;;17.25;;
62994;SDS011;49086;52.300;4.850;2022-10-31T08:29:12;33.20;;;18.25;;
62994;SDS011;49086;52.300;4.850;2022-10-31T08:34:35;28.80;;;18.50;;
62994;SDS011;49086;52.300;4.850;2022-10-31T08:37:53;36.53;;;20.15;;
62994;SDS011;49086;52.300;4.850;2022-10-31T08:40:41;36.08;;;20.33;;
62994;SDS011;49086;52.300;4.850;2022-10-31T08:43:31;37.75;;;20.23;;
62994;SDS011;49086;52.300;4.850;2022-10-31T08:49:34;38.00;;;20.15;;
62994;SDS011;49086;52.300;4.850;2022-10-31T08:52:02;35.83;;;20.63;;
62994;SDS011;49086;52.300;4.850;2022-10-31T08:54:40;32.75;;;19.13;;
62994;SDS011;49086;52.300;4.850;2022-10-31T08:57:10;35.60;;;21.00;;
62994;SDS011;49086;52.300;4.850;2022-10-31T08:59:45;34.15;;;19.35;;
62994;SDS011;49086;52.300;4.850;2022-10-31T09:02:17;36.25;;;19.80;;
62994;SDS011;49086;52.300;4.850;2022-10-31T09:04:46;33.25;;;19.13;;
62994;SDS011;49086;52.300;4.850;2022-10-31T09:07:33;30.55;;;18.08;;
62994;SDS011;49086;52.300;4.850;2022-10-31T09:10:03;33.20;;;18.33;;
62994;SDS011;49086;52.300;4.850;2022-10-31T09:13:12;39.00;;;17.52;;
62994;SDS011;49086;52.300;4.850;2022-10-31T09:15:55;30.75;;;18.27;;
62994;SDS011;49086;52.300;4.850;2022-10-31T09:21:39;31.00;;;17.23;;
62994;SDS011;49086;52.300;4.850;2022-10-31T09:24:44;33.55;;;17.60;;
62994;SDS011;49086;52.300;4.850;2022-10-31T09:27:13;29.80;;;17.02;;
62994;SDS011;49086;52.300;4.850;2022-10-31T09:29:42;34.33;;;17.73;;
62994;SDS011;49086;52.300;4.850;2022-10-31T09:32:09;31.48;;;16.88;;
62994;SDS011;49086;52.300;4.850;2022-10-31T09:35:01;28.73;;;15.15;;
62994;SDS011;49086;52.300;4.850;2022-10-31T09:37:38;28.80;;;15.27;;
62994;SDS011;49086;52.300;4.850;2022-10-31T09:40:06;29.10;;;16.45;;
62994;SDS011;49086;52.300;4.850;2022-10-31T09:51:03;25.70;;;16.10;;
62994;SDS011;49086;52.300;4.850;2022-10-31T09:53:43;27.13;;;15.40;;
62994;SDS011;49086;52.300;4.850;2022-10-31T09:56:11;26.08;;;15.85;;
62994;SDS011;49086;52.300;4.850;2022-10-31T09:58:45;30.65;;;16.15;;
62994;SDS011;49086;52.300;4.850;2022-10-31T10:01:23;26.27;;;16.58;;
62994;SDS011;49086;52.300;4.850;2022-10-31T10:03:53;27.48;;;16.02;;
62994;SDS011;49086;52.300;4.850;2022-10-31T10:06:28;21.50;;;14.75;;
62994;SDS011;49086;52.300;4.850;2022-10-31T10:09:09;26.55;;;15.63;;
62994;SDS011;49086;52.300;4.850;2022-10-31T10:12:13;28.33;;;16.13;;
62994;SDS011;49086;52.300;4.850;2022-10-31T10:14:57;28.02;;;15.77;;
62994;SDS011;49086;52.300;4.850;2022-10-31T10:17:49;26.20;;;14.65;;
62994;SDS011;49086;52.300;4.850;2022-10-31T10:29:20;29.80;;;15.88;;
62994;SDS011;49086;52.300;4.850;2022-10-31T10:35:19;22.40;;;13.73;;
62994;SDS011;49086;52.300;4.850;2022-10-31T10:40:16;27.38;;;15.40;;
62994;SDS011;49086;52.300;4.850;2022-10-31T10:43:34;28.48;;;15.48;;
62994;SDS011;49086;52.300;4.850;2022-10-31T10:52:32;26.95;;;15.65;;
62994;SDS011;49086;52.300;4.850;2022-10-31T10:55:27;30.88;;;16.27;;
62994;SDS011;49086;52.300;4.850;2022-10-31T10:57:56;29.45;;;17.17;;
62994;SDS011;49086;52.300;4.850;2022-10-31T11:03:18;25.77;;;15.80;;
62994;SDS011;49086;52.300;4.850;2022-10-31T11:06:20;24.52;;;14.43;;
62994;SDS011;49086;52.300;4.850;2022-10-31T11:09:14;29.38;;;15.02;;
62994;SDS011;49086;52.300;4.850;2022-10-31T11:12:08;23.02;;;13.18;;
62994;SDS011;49086;52.300;4.850;2022-10-31T11:15:18;20.38;;;11.75;;
62994;SDS011;49086;52.300;4.850;2022-10-31T11:17:48;28.63;;;13.35;;
62994;SDS011;49086;52.300;4.850;2022-10-31T11:20:33;17.30;;;11.90;;
62994;SDS011;49086;52.300;4.850;2022-10-31T11:23:18;16.52;;;10.75;;
62994;SDS011;49086;52.300;4.850;2022-10-31T11:26:15;19.63;;;11.57;;
62994;SDS011;49086;52.300;4.850;2022-10-31T11:31:39;21.50;;;11.73;;
62994;SDS011;49086;52.300;4.850;2022-10-31T11:34:12;18.80;;;10.75;;
62994;SDS011;49086;52.300;4.850;2022-10-31T11:37:21;17.27;;;10.02;;
62994;SDS011;49086;52.300;4.850;2022-10-31T11:48:45;16.92;;;9.75;;
62994;SDS011;49086;52.300;4.850;2022-10-31T11:51:11;18.92;;;10.07;;
62994;SDS011;49086;52.300;4.850;2022-10-31T11:53:36;15.93;;;9.50;;
62994;SDS011;49086;52.300;4.850;2022-10-31T11:56:04;16.63;;;9.52;;
62994;SDS011;49086;52.300;4.850;2022-10-31T11:58:32;13.48;;;8.88;;
62994;SDS011;49086;52.300;4.850;2022-10-31T12:00:58;15.70;;;9.27;;
62994;SDS011;49086;52.300;4.850;2022-10-31T12:05:53;18.45;;;10.15;;
62994;SDS011;49086;52.300;4.850;2022-10-31T12:08:18;14.85;;;9.38;;
62994;SDS011;49086;52.300;4.850;2022-10-31T12:10:57;16.90;;;9.43;;
62994;SDS011;49086;52.300;4.850;2022-10-31T12:13:29;17.55;;;9.38;;
62994;SDS011;49086;52.300;4.850;2022-10-31T12:16:00;14.98;;;9.30;;
62994;SDS011;49086;52.300;4.850;2022-10-31T12:18:40;18.48;;;10.05;;
62994;SDS011;49086;52.300;4.850;2022-10-31T12:26:45;16.13;;;10.50;;
62994;SDS011;49086;52.300;4.850;2022-10-31T12:32:24;22.65;;;11.10;;
62994;SDS011;49086;52.300;4.850;2022-10-31T12:45:52;25.38;;;13.60;;
62994;SDS011;49086;52.300;4.850;2022-10-31T12:54:39;24.45;;;15.15;;
62994;SDS011;49086;52.300;4.850;2022-10-31T12:57:28;31.25;;;14.70;;
62994;SDS011;49086;52.300;4.850;2022-10-31T13:00:03;28.48;;;15.20;;
62994;SDS011;49086;52.300;4.850;2022-10-31T13:02:35;33.17;;;15.55;;
62994;SDS011;49086;52.300;4.850;2022-10-31T13:07:36;26.17;;;13.95;;
62994;SDS011;49086;52.300;4.850;2022-10-31T13:10:10;24.15;;;13.38;;
62994;SDS011;49086;52.300;4.850;2022-10-31T13:12:40;24.63;;;13.60;;
62994;SDS011;49086;52.300;4.850;2022-10-31T13:15:14;26.40;;;13.10;;
62994;SDS011;49086;52.300;4.850;2022-10-31T13:18:04;20.80;;;12.68;;
62994;SDS011;49086;52.300;4.850;2022-10-31T13:20:59;26.30;;;14.05;;
62994;SDS011;49086;52.300;4.850;2022-10-31T13:23:33;24.13;;;13.23;;
62994;SDS011;49086;52.300;4.850;2022-10-31T13:26:06;28.23;;;13.60;;
62994;SDS011;49086;52.300;4.850;2022-10-31T13:28:36;28.15;;;14.82;;
62994;SDS011;49086;52.300;4.850;2022-10-31T13:31:22;22.35;;;12.98;;
62994;SDS011;49086;52.300;4.850;2022-10-31T13:34:03;28.20;;;12.90;;
62994;SDS011;49086;52.300;4.850;2022-10-31T13:36:38;27.92;;;15.07;;
62994;SDS011;49086;52.300;4.850;2022-10-31T13:41:54;25.45;;;14.32;;
62994;SDS011;49086;52.300;4.850;2022-10-31T13:44:24;26.33;;;12.45;;
62994;SDS011;49086;52.300;4.850;2022-10-31T13:46:53;25.52;;;14.63;;
62994;SDS011;49086;52.300;4.850;2022-10-31T13:49:41;26.38;;;13.80;;
62994;SDS011;49086;52.300;4.850;2022-10-31T13:52:16;23.60;;;13.73;;
62994;SDS011;49086;52.300;4.850;2022-10-31T13:54:44;24.42;;;13.48;;
62994;SDS011;49086;52.300;4.850;2022-10-31T13:57:21;29.30;;;14.52;;
62994;SDS011;49086;52.300;4.850;2022-10-31T14:00:07;25.63;;;13.45;;
62994;SDS011;49086;52.300;4.850;2022-10-31T14:02:47;32.58;;;15.88;;
62994;SDS011;49086;52.300;4.850;2022-10-31T14:13:56;28.63;;;14.90;;
62994;SDS011;49086;52.300;4.850;2022-10-31T14:16:24;26.10;;;13.90;;
62994;SDS011;49086;52.300;4.850;2022-10-31T14:18:58;28.85;;;14.13;;
62994;SDS011;49086;52.300;4.850;2022-10-31T14:21:28;25.77;;;14.45;;
62994;SDS011;49086;52.300;4.850;2022-10-31T14:23:55;28.95;;;16.35;;
62994;SDS011;49086;52.300;4.850;2022-10-31T14:26:30;28.70;;;15.45;;
62994;SDS011;49086;52.300;4.850;2022-10-31T14:31:44;27.05;;;15.20;;
62994;SDS011;49086;52.300;4.850;2022-10-31T14:34:25;29.67;;;14.52;;
62994;SDS011;49086;52.300;4.850;2022-10-31T14:45:08;34.33;;;15.40;;
62994;SDS011;49086;52.300;4.850;2022-10-31T14:47:46;29.58;;;16.27;;
62994;SDS011;49086;52.300;4.850;2022-10-31T14:52:44;29.90;;;15.45;;
62994;SDS011;49086;52.300;4.850;2022-10-31T14:55:13;34.03;;;15.43;;
62994;SDS011;49086;52.300;4.850;2022-10-31T14:57:43;30.75;;;16.38;;
62994;SDS011;49086;52.300;4.850;2022-10-31T15:00:15;35.10;;;16.73;;
62994;SDS011;49086;52.300;4.850;2022-10-31T15:05:52;30.50;;;15.77;;
62994;SDS011;49086;52.300;4.850;2022-10-31T15:11:11;27.30;;;14.43;;
62994;SDS011;49086;52.300;4.850;2022-10-31T15:13:48;31.67;;;16.50;;
62994;SDS011;49086;52.300;4.850;2022-10-31T15:16:16;31.20;;;15.50;;
62994;SDS011;49086;52.300;4.850;2022-10-31T15:19:07;29.85;;;14.63;;
62994;SDS011;49086;52.300;4.850;2022-10-31T15:22:00;31.10;;;14.45;;
62994;SDS011;49086;52.300;4.850;2022-10-31T15:24:47;36.70;;;15.35;;
62994;SDS011;49086;52.300;4.850;2022-10-31T15:27:21;30.90;;;14.27;;
62994;SDS011;49086;52.300;4.850;2022-10-31T15:29:48;33.42;;;14.65;;
62994;SDS011;49086;52.300;4.850;2022-10-31T15:32:22;32.70;;;16.05;;
62994;SDS011;49086;52.300;4.850;2022-10-31T15:34:51;30.95;;;15.23;;
62994;SDS011;49086;52.300;4.850;2022-10-31T15:37:19;31.40;;;14.85;;
62994;SDS011;49086;52.300;4.850;2022-10-31T15:39:56;32.20;;;15.32;;
62994;SDS011;49086;52.300;4.850;2022-10-31T15:42:34;29.13;;;14.18;;
62994;SDS011;49086;52.300;4.850;2022-10-31T15:45:02;28.75;;;14.05;;
62994;SDS011;49086;52.300;4.850;2022-10-31T15:47:28;28.63;;;14.68;;
62994;SDS011;49086;52.300;4.850;2022-10-31T15:50:03;30.30;;;13.43;;
62994;SDS011;49086;52.300;4.850;2022-10-31T15:52:34;32.05;;;14.65;;
62994;SDS011;49086;52.300;4.850;2022-10-31T15:55:22;28.38;;;13.70;;
62994;SDS011;49086;52.300;4.850;2022-10-31T15:57:50;31.10;;;15.10;;
62994;SDS011;49086;52.300;4.850;2022-10-31T16:00:29;30.23;;;15.30;;
62994;SDS011;49086;52.300;4.850;2022-10-31T16:03:33;35.03;;;14.73;;
62994;SDS011;49086;52.300;4.850;2022-10-31T16:06:44;31.88;;;14.65;;
62994;SDS011;49086;52.300;4.850;2022-10-31T16:09:31;24.73;;;13.18;;
62994;SDS011;49086;52.300;4.850;2022-10-31T16:12:20;30.65;;;14.80;;
62994;SDS011;49086;52.300;4.850;2022-10-31T16:15:13;32.83;;;14.20;;
62994;SDS011;49086;52.300;4.850;2022-10-31T16:18:26;27.10;;;13.75;;
62994;SDS011;49086;52.300;4.850;2022-10-31T16:20:52;27.08;;;14.80;;
62994;SDS011;49086;52.300;4.850;2022-10-31T16:23:25;24.83;;;12.90;;
62994;SDS011;49086;52.300;4.850;2022-10-31T16:25:51;31.42;;;14.23;;
62994;SDS011;49086;52.300;4.850;2022-10-31T16:31:29;30.35;;;13.98;;
62994;SDS011;49086;52.300;4.850;2022-10-31T16:34:22;28.23;;;13.85;;
62994;SDS011;49086;52.300;4.850;2022-10-31T16:36:49;33.55;;;15.32;;
62994;SDS011;49086;52.300;4.850;2022-10-31T16:39:21;28.67;;;15.18;;
62994;SDS011;49086;52.300;4.850;2022-10-31T16:41:59;29.15;;;14.45;;
62994;SDS011;49086;52.300;4.850;2022-10-31T16:44:25;28.38;;;13.10;;
62994;SDS011;49086;52.300;4.850;2022-10-31T16:49:57;28.25;;;14.70;;
62994;SDS011;49086;52.300;4.850;2022-10-31T16:52:24;29.27;;;13.77;;
62994;SDS011;49086;52.300;4.850;2022-10-31T16:55:12;28.35;;;13.93;;
62994;SDS011;49086;52.300;4.850;2022-10-31T16:57:51;30.52;;;14.65;;
62994;SDS011;49086;52.300;4.850;2022-10-31T17:00:18;29.42;;;14.77;;
62994;SDS011;49086;52.300;4.850;2022-10-31T17:02:52;29.70;;;14.85;;
62994;SDS011;49086;52.300;4.850;2022-10-31T17:05:20;30.10;;;15.27;;
62994;SDS011;49086;52.300;4.850;2022-10-31T17:07:46;29.95;;;14.50;;
62994;SDS011;49086;52.300;4.850;2022-10-31T17:10:37;32.15;;;14.85;;
62994;SDS011;49086;52.300;4.850;2022-10-31T17:13:04;33.65;;;14.95;;
62994;SDS011;49086;52.300;4.850;2022-10-31T17:15:53;29.23;;;14.95;;
62994;SDS011;49086;52.300;4.850;2022-10-31T17:18:20;27.83;;;14.10;;
62994;SDS011;49086;52.300;4.850;2022-10-31T17:21:11;34.13;;;15.05;;
62994;SDS011;49086;52.300;4.850;2022-10-31T17:23:41;29.15;;;14.55;;
62994;SDS011;49086;52.300;4.850;2022-10-31T17:26:11;29.25;;;14.07;;
62994;SDS011;49086;52.300;4.850;2022-10-31T17:28:36;25.85;;;14.18;;
62994;SDS011;49086;52.300;4.850;2022-10-31T17:31:32;30.95;;;14.10;;
62994;SDS011;49086;52.300;4.850;2022-10-31T17:33:58;24.00;;;13.45;;
62994;SDS011;49086;52.300;4.850;2022-10-31T17:36:25;28.73;;;14.40;;
62994;SDS011;49086;52.300;4.850;2022-10-31T17:38:53;28.77;;;14.55;;
62994;SDS011;49086;52.300;4.850;2022-10-31T17:41:18;25.67;;;12.68;;
62994;SDS011;49086;52.300;4.850;2022-10-31T17:43:58;30.52;;;14.00;;
62994;SDS011;49086;52.300;4.850;2022-10-31T17:46:24;26.15;;;13.45;;